Flight Track Log - Related Links

Times and Time Zones

All times are in EST time to prevent confusion due to time zone crossing. See the N20238 flight status page for this flight to view local times or setup timezone preferences in your user account.

Time Position Orientation Groundspeed Altitude Reporting Facility
EST Latitude Longitude Course Direction KTS MPH feet Rate Location/Type
Sat 10:56:55 AM 41.6572 -72.2644 230° Southwest 56 64 5,000  Level Boston Center
Sat 10:57:34 AM 41.6486 -72.2731 217° Southwest 52 60 5,400 590 Climbing Boston Center
Sat 10:57:56 AM 41.6436 -72.2733 182° South 52 60 5,600 393 Climbing Boston Center
Sat 10:58:35 AM 41.6344 -72.2792 205° Southwest 60 69 5,800 400 Climbing Boston Center
Sat 10:58:56 AM 41.6272 -72.2800 185° South 62 71 6,000 295 Climbing Boston Center
Sat 10:59:36 AM 41.6156 -72.2864 202° Southwest 66 76 6,100 393 Climbing Boston Center
Sat 10:59:57 AM 41.6097 -72.2889 198° South 67 77 6,400 250 Climbing Boston Center
Sat 11:00:48 AM 41.5928 -72.3008 208° Southwest 76 87 6,400 95 Level Boston Center
Sat 11:01:00 AM 41.5917 -72.3033 239° Southwest 75 86 6,500  Climbing Boston Center
Sat 11:01:49 AM 41.5717 -72.3189 210° Southwest 87 100 6,400  Descending Boston Center
Sat 11:02:00 AM 41.1994 -72.2585 230° Southwest  Level Estimated
Sat 11:02:01 AM 41.5689 -72.3200 197° South 87 100 6,500  Level Boston Center
Sat 11:02:49 AM 41.5492 -72.3333 207° Southwest 92 106 6,400  Descending Boston Center
Sat 11:03:01 AM 41.5458 -72.3356 207° Southwest 92 106 6,500  Climbing Boston Center
Sat 11:03:46 AM 41.5286 -72.3486 210° Southwest 91 105 6,400 -100 Descending Boston Center
Sat 11:04:01 AM 41.5236 -72.3519 207° Southwest 91 105 6,400  Level Boston Center
Sat 11:04:47 AM 41.5072 -72.3667 214° Southwest 87 100 6,400  Level Boston Center
Sat 11:05:05 AM 41.5022 -72.3683 194° South 89 102 6,400  Level Boston Center
Sat 11:05:46 AM 41.4847 -72.3811 209° Southwest 88 101 6,400 97 Level Boston Center
Sat 11:06:07 AM 41.4781 -72.3847 202° Southwest 91 105 6,500  Climbing Boston Center
Sat 11:06:49 AM 41.4642 -72.3964 212° Southwest 88 101 6,400  Descending Boston Center
Sat 11:07:07 AM 41.4578 -72.4019 213° Southwest 89 102 6,500  Climbing Boston Center
Sat 11:07:49 AM 41.4428 -72.4142 211° Southwest 88 101 6,400  Descending Boston Center
Sat 11:08:08 AM 41.4375 -72.4178 207° Southwest 92 106 6,500 24 Climbing Boston Center
Sat 11:10:00 AM 41.3739 -72.4483 209° Southwest  Level FlightAware Approximate
Sat 11:11:55 AM 41.3500 -72.4833 209° Southwest 93 107 6,500  Level New York TRACON
Sat 11:12:55 AM 41.3333 -72.5000 217° Southwest 93 107 6,500  Level New York TRACON
Sat 11:13:55 AM 41.3000 -72.5167 201° Southwest 94 108 6,500  Level New York TRACON
Sat 11:14:49 AM 41.2833 -72.5167 180° South 98 113 6,500  Level New York TRACON
Sat 11:15:49 AM 41.2667 -72.5333 217° Southwest 92 106 6,500  Level New York TRACON
Sat 11:16:49 AM 41.2333 -72.5667 217° Southwest 90 104 6,500  Level New York TRACON
Sat 11:17:00 AM 41.1517 -72.6121 209° Southwest  Level FlightAware Approximate
Sat 11:17:49 AM 41.2167 -72.5833 217° Southwest 89 102 6,500  Level New York TRACON
Sat 11:18:49 AM 41.2000 -72.6000 217° Southwest 88 101 6,600  Climbing New York TRACON
Sat 11:19:49 AM 41.1833 -72.6167 217° Southwest 88 101 6,500 -50 Descending New York TRACON
Sat 11:20:49 AM 41.1667 -72.6333 217° Southwest 90 104 6,500  Level New York TRACON
Sat 11:21:49 AM 41.1333 -72.6500 201° Southwest 88 101 6,500  Level New York TRACON
Sat 11:22:49 AM 41.1167 -72.6667 217° Southwest 86 99 6,500 -53 Level New York TRACON
Sat 11:23:43 AM 41.1000 -72.6833 217° Southwest 85 98 6,400  Descending New York TRACON
Sat 11:24:43 AM 41.0833 -72.6833 180° South 88 101 6,500 -50 Climbing New York TRACON
Sat 11:25:43 AM 41.0500 -72.7000 201° Southwest 86 99 6,300 -300 Descending New York TRACON
Sat 11:26:43 AM 41.0333 -72.7167 217° Southwest 98 113 5,900 -474 Descending New York TRACON
Sat 11:27:37 AM 41.0167 -72.7333 217° Southwest 102 117 5,400 -526 Descending New York TRACON
Sat 11:28:37 AM 40.9833 -72.7667 217° Southwest 106 122 4,900 -524 Descending New York TRACON
Sat 11:29:43 AM 40.9500 -72.7833 201° Southwest 110 127 4,300 -545 Descending New York TRACON

Login

Don't have an account? Register now (free) for customized features, flight alerts, and more!